sensor_id;sensor_type;location;lat;lon;timestamp;temperature;humidity
54930;DHT22;40833;53.238;6.576;2022-12-20T00:00:01;9.70;99.90
54930;DHT22;40833;53.238;6.576;2022-12-20T00:02:27;9.20;99.90
54930;DHT22;40833;53.238;6.576;2022-12-20T00:04:53;9.20;99.90
54930;DHT22;40833;53.238;6.576;2022-12-20T00:07:19;9.30;99.90
54930;DHT22;40833;53.238;6.576;2022-12-20T00:09:44;9.60;99.90
54930;DHT22;40833;53.238;6.576;2022-12-20T00:12:10;9.20;99.90
54930;DHT22;40833;53.238;6.576;2022-12-20T00:14:36;9.20;99.90
54930;DHT22;40833;53.238;6.576;2022-12-20T00:17:01;9.20;99.90
54930;DHT22;40833;53.238;6.576;2022-12-20T00:19:27;9.10;99.90
54930;DHT22;40833;53.238;6.576;2022-12-20T00:21:52;9.10;99.90
54930;DHT22;40833;53.238;6.576;2022-12-20T00:24:18;9.10;99.90
54930;DHT22;40833;53.238;6.576;2022-12-20T00:26:44;9.20;99.90
54930;DHT22;40833;53.238;6.576;2022-12-20T00:29:09;9.10;99.90
54930;DHT22;40833;53.238;6.576;2022-12-20T00:31:35;9.00;99.90
54930;DHT22;40833;53.238;6.576;2022-12-20T00:34:01;9.10;99.90
54930;DHT22;40833;53.238;6.576;2022-12-20T00:36:29;9.10;99.90
54930;DHT22;40833;53.238;6.576;2022-12-20T00:38:55;9.30;99.90
54930;DHT22;40833;53.238;6.576;2022-12-20T00:41:26;9.10;99.90
54930;DHT22;40833;53.238;6.576;2022-12-20T00:43:53;9.10;99.90
54930;DHT22;40833;53.238;6.576;2022-12-20T00:46:20;9.30;99.90
54930;DHT22;40833;53.238;6.576;2022-12-20T00:48:46;9.10;99.90
54930;DHT22;40833;53.238;6.576;2022-12-20T00:51:14;9.00;99.90
54930;DHT22;40833;53.238;6.576;2022-12-20T00:53:41;9.00;99.90
54930;DHT22;40833;53.238;6.576;2022-12-20T00:56:07;9.00;99.90
54930;DHT22;40833;53.238;6.576;2022-12-20T00:58:35;9.00;99.90
54930;DHT22;40833;53.238;6.576;2022-12-20T01:01:02;9.00;99.90
54930;DHT22;40833;53.238;6.576;2022-12-20T01:03:29;9.00;99.90
54930;DHT22;40833;53.238;6.576;2022-12-20T01:05:56;9.00;99.90
54930;DHT22;40833;53.238;6.576;2022-12-20T01:08:23;9.00;99.90
54930;DHT22;40833;53.238;6.576;2022-12-20T01:11:07;9.00;99.90
54930;DHT22;40833;53.238;6.576;2022-12-20T01:13:35;9.10;99.90
54930;DHT22;40833;53.238;6.576;2022-12-20T01:16:16;9.00;99.90
54930;DHT22;40833;53.238;6.576;2022-12-20T01:18:42;9.10;99.90
54930;DHT22;40833;53.238;6.576;2022-12-20T01:21:10;9.40;99.90
54930;DHT22;40833;53.238;6.576;2022-12-20T01:23:37;10.70;99.90
54930;DHT22;40833;53.238;6.576;2022-12-20T01:26:04;9.20;99.90
54930;DHT22;40833;53.238;6.576;2022-12-20T01:28:33;9.20;99.90
54930;DHT22;40833;53.238;6.576;2022-12-20T01:30:59;9.20;99.90
54930;DHT22;40833;53.238;6.576;2022-12-20T01:33:25;9.30;99.90
54930;DHT22;40833;53.238;6.576;2022-12-20T01:35:58;10.10;99.90
54930;DHT22;40833;53.238;6.576;2022-12-20T01:38:24;9.40;99.90
54930;DHT22;40833;53.238;6.576;2022-12-20T01:40:50;9.20;99.90
54930;DHT22;40833;53.238;6.576;2022-12-20T01:43:18;9.70;99.90
54930;DHT22;40833;53.238;6.576;2022-12-20T01:45:44;9.20;99.90
54930;DHT22;40833;53.238;6.576;2022-12-20T01:48:10;9.20;99.90
54930;DHT22;40833;53.238;6.576;2022-12-20T01:50:36;9.20;99.90
54930;DHT22;40833;53.238;6.576;2022-12-20T01:53:03;9.10;99.90
54930;DHT22;40833;53.238;6.576;2022-12-20T01:55:30;9.10;99.90
54930;DHT22;40833;53.238;6.576;2022-12-20T01:58:02;9.10;99.90
54930;DHT22;40833;53.238;6.576;2022-12-20T02:00:29;9.20;99.90
54930;DHT22;40833;53.238;6.576;2022-12-20T02:02:58;9.10;99.90
54930;DHT22;40833;53.238;6.576;2022-12-20T02:05:24;9.40;99.90
54930;DHT22;40833;53.238;6.576;2022-12-20T02:07:52;9.50;99.90
54930;DHT22;40833;53.238;6.576;2022-12-20T02:10:22;9.10;99.90
54930;DHT22;40833;53.238;6.576;2022-12-20T02:12:50;9.10;99.90
54930;DHT22;40833;53.238;6.576;2022-12-20T02:15:22;9.10;99.90
54930;DHT22;40833;53.238;6.576;2022-12-20T02:18:24;9.50;99.90
54930;DHT22;40833;53.238;6.576;2022-12-20T02:32:27;9.10;99.90
54930;DHT22;40833;53.238;6.576;2022-12-20T02:34:55;9.10;99.90
54930;DHT22;40833;53.238;6.576;2022-12-20T02:37:21;9.00;99.90
54930;DHT22;40833;53.238;6.576;2022-12-20T02:39:47;9.00;99.90
54930;DHT22;40833;53.238;6.576;2022-12-20T02:42:17;9.00;99.90
54930;DHT22;40833;53.238;6.576;2022-12-20T02:44:51;9.00;99.90
54930;DHT22;40833;53.238;6.576;2022-12-20T02:47:39;9.10;99.90
54930;DHT22;40833;53.238;6.576;2022-12-20T02:50:08;9.30;99.90
54930;DHT22;40833;53.238;6.576;2022-12-20T02:52:35;6.50;99.90
54930;DHT22;40833;53.238;6.576;2022-12-20T02:55:02;9.10;99.90
54930;DHT22;40833;53.238;6.576;2022-12-20T03:02:37;9.10;99.90
54930;DHT22;40833;53.238;6.576;2022-12-20T03:05:23;9.00;99.90
54930;DHT22;40833;53.238;6.576;2022-12-20T03:07:50;9.10;99.90
54930;DHT22;40833;53.238;6.576;2022-12-20T03:10:17;9.00;99.90
54930;DHT22;40833;53.238;6.576;2022-12-20T03:12:42;9.00;99.90
54930;DHT22;40833;53.238;6.576;2022-12-20T03:15:08;9.00;99.90
54930;DHT22;40833;53.238;6.576;2022-12-20T03:17:34;9.00;99.90
54930;DHT22;40833;53.238;6.576;2022-12-20T03:20:00;9.10;99.90
54930;DHT22;40833;53.238;6.576;2022-12-20T03:22:26;9.30;99.90
54930;DHT22;40833;53.238;6.576;2022-12-20T03:24:52;9.00;99.90
54930;DHT22;40833;53.238;6.576;2022-12-20T03:27:17;9.10;99.90
54930;DHT22;40833;53.238;6.576;2022-12-20T03:29:43;9.10;99.90
54930;DHT22;40833;53.238;6.576;2022-12-20T03:32:11;9.10;99.90
54930;DHT22;40833;53.238;6.576;2022-12-20T03:34:36;9.40;99.90
54930;DHT22;40833;53.238;6.576;2022-12-20T03:37:02;9.10;99.90
54930;DHT22;40833;53.238;6.576;2022-12-20T03:39:28;9.10;99.90
54930;DHT22;40833;53.238;6.576;2022-12-20T03:41:53;9.10;99.90
54930;DHT22;40833;53.238;6.576;2022-12-20T03:44:19;9.00;99.90
54930;DHT22;40833;53.238;6.576;2022-12-20T03:46:45;9.00;99.90
54930;DHT22;40833;53.238;6.576;2022-12-20T03:49:10;9.30;99.90
54930;DHT22;40833;53.238;6.576;2022-12-20T03:51:36;9.10;99.90
54930;DHT22;40833;53.238;6.576;2022-12-20T03:54:02;9.10;99.90
54930;DHT22;40833;53.238;6.576;2022-12-20T03:56:27;9.00;99.90
54930;DHT22;40833;53.238;6.576;2022-12-20T03:58:53;9.20;99.90
54930;DHT22;40833;53.238;6.576;2022-12-20T04:01:21;9.40;99.90
54930;DHT22;40833;53.238;6.576;2022-12-20T04:03:47;9.00;99.90
54930;DHT22;40833;53.238;6.576;2022-12-20T04:06:13;9.00;99.90
54930;DHT22;40833;53.238;6.576;2022-12-20T04:08:39;9.50;99.90
54930;DHT22;40833;53.238;6.576;2022-12-20T04:11:04;9.00;99.90
54930;DHT22;40833;53.238;6.576;2022-12-20T04:13:47;9.00;99.90
54930;DHT22;40833;53.238;6.576;2022-12-20T04:16:15;9.00;99.90
54930;DHT22;40833;53.238;6.576;2022-12-20T04:18:41;9.20;99.90
54930;DHT22;40833;53.238;6.576;2022-12-20T04:21:07;9.10;99.90
54930;DHT22;40833;53.238;6.576;2022-12-20T04:23:35;9.20;99.90
54930;DHT22;40833;53.238;6.576;2022-12-20T04:26:02;9.10;99.90
54930;DHT22;40833;53.238;6.576;2022-12-20T04:28:29;9.30;99.90
54930;DHT22;40833;53.238;6.576;2022-12-20T04:30:55;9.20;99.90
54930;DHT22;40833;53.238;6.576;2022-12-20T04:33:21;9.20;99.90
54930;DHT22;40833;53.238;6.576;2022-12-20T04:35:47;9.20;99.90
54930;DHT22;40833;53.238;6.576;2022-12-20T04:38:13;9.40;99.90
54930;DHT22;40833;53.238;6.576;2022-12-20T04:40:39;9.30;99.90
54930;DHT22;40833;53.238;6.576;2022-12-20T04:43:05;9.30;99.90
54930;DHT22;40833;53.238;6.576;2022-12-20T04:45:33;9.50;99.90
54930;DHT22;40833;53.238;6.576;2022-12-20T04:47:59;9.80;99.90
54930;DHT22;40833;53.238;6.576;2022-12-20T04:50:25;9.40;99.90
54930;DHT22;40833;53.238;6.576;2022-12-20T04:52:50;9.80;99.90
54930;DHT22;40833;53.238;6.576;2022-12-20T04:55:38;9.30;99.90
54930;DHT22;40833;53.238;6.576;2022-12-20T04:58:06;9.40;99.90
54930;DHT22;40833;53.238;6.576;2022-12-20T05:00:32;11.40;99.90
54930;DHT22;40833;53.238;6.576;2022-12-20T05:02:59;9.40;99.90
54930;DHT22;40833;53.238;6.576;2022-12-20T05:05:25;10.10;99.90
54930;DHT22;40833;53.238;6.576;2022-12-20T05:07:51;9.50;99.90
54930;DHT22;40833;53.238;6.576;2022-12-20T05:10:17;9.60;99.90
54930;DHT22;40833;53.238;6.576;2022-12-20T05:12:43;9.70;99.90
54930;DHT22;40833;53.238;6.576;2022-12-20T05:15:10;9.60;99.90
54930;DHT22;40833;53.238;6.576;2022-12-20T05:17:35;9.60;99.90
54930;DHT22;40833;53.238;6.576;2022-12-20T05:20:02;9.60;99.90
54930;DHT22;40833;53.238;6.576;2022-12-20T05:22:28;9.60;99.90
54930;DHT22;40833;53.238;6.576;2022-12-20T05:25:13;9.60;99.90
54930;DHT22;40833;53.238;6.576;2022-12-20T05:27:57;9.70;99.90
54930;DHT22;40833;53.238;6.576;2022-12-20T05:30:22;9.70;99.90
54930;DHT22;40833;53.238;6.576;2022-12-20T05:32:48;10.10;99.90
54930;DHT22;40833;53.238;6.576;2022-12-20T05:35:14;9.70;99.90
54930;DHT22;40833;53.238;6.576;2022-12-20T05:37:40;9.60;99.90
54930;DHT22;40833;53.238;6.576;2022-12-20T05:40:06;9.70;99.90
54930;DHT22;40833;53.238;6.576;2022-12-20T05:42:32;9.70;99.90
54930;DHT22;40833;53.238;6.576;2022-12-20T05:44:58;9.70;99.90
54930;DHT22;40833;53.238;6.576;2022-12-20T05:47:25;9.70;99.90
54930;DHT22;40833;53.238;6.576;2022-12-20T05:49:51;9.70;99.90
54930;DHT22;40833;53.238;6.576;2022-12-20T05:52:17;9.80;99.90
54930;DHT22;40833;53.238;6.576;2022-12-20T05:54:42;9.80;99.90
54930;DHT22;40833;53.238;6.576;2022-12-20T05:57:08;9.80;99.90
54930;DHT22;40833;53.238;6.576;2022-12-20T05:59:34;9.80;99.90
54930;DHT22;40833;53.238;6.576;2022-12-20T06:02:00;10.00;99.90
54930;DHT22;40833;53.238;6.576;2022-12-20T06:04:25;9.80;99.90
54930;DHT22;40833;53.238;6.576;2022-12-20T06:06:51;9.80;99.90
54930;DHT22;40833;53.238;6.576;2022-12-20T06:09:17;9.90;99.90
54930;DHT22;40833;53.238;6.576;2022-12-20T06:11:43;9.90;99.90
54930;DHT22;40833;53.238;6.576;2022-12-20T06:14:08;10.10;99.90
54930;DHT22;40833;53.238;6.576;2022-12-20T06:16:34;9.90;99.90
54930;DHT22;40833;53.238;6.576;2022-12-20T06:19:00;10.10;99.90
54930;DHT22;40833;53.238;6.576;2022-12-20T06:21:27;9.90;99.90
54930;DHT22;40833;53.238;6.576;2022-12-20T06:23:53;9.90;99.90
54930;DHT22;40833;53.238;6.576;2022-12-20T06:26:19;9.90;99.90
54930;DHT22;40833;53.238;6.576;2022-12-20T06:28:48;9.90;99.90
54930;DHT22;40833;53.238;6.576;2022-12-20T06:31:17;9.90;99.90
54930;DHT22;40833;53.238;6.576;2022-12-20T06:33:43;9.90;99.90
54930;DHT22;40833;53.238;6.576;2022-12-20T06:36:09;9.90;99.90
54930;DHT22;40833;53.238;6.576;2022-12-20T06:38:35;9.90;99.90
54930;DHT22;40833;53.238;6.576;2022-12-20T06:41:01;10.00;99.90
54930;DHT22;40833;53.238;6.576;2022-12-20T06:43:26;9.90;99.90
54930;DHT22;40833;53.238;6.576;2022-12-20T06:45:52;10.00;99.90
54930;DHT22;40833;53.238;6.576;2022-12-20T06:48:18;10.00;99.90
54930;DHT22;40833;53.238;6.576;2022-12-20T06:50:47;10.00;99.90
54930;DHT22;40833;53.238;6.576;2022-12-20T06:53:13;10.00;99.90
54930;DHT22;40833;53.238;6.576;2022-12-20T06:55:39;10.00;99.90
54930;DHT22;40833;53.238;6.576;2022-12-20T06:58:05;10.00;99.90
54930;DHT22;40833;53.238;6.576;2022-12-20T07:00:31;10.30;99.90
54930;DHT22;40833;53.238;6.576;2022-12-20T07:02:57;10.10;99.90
54930;DHT22;40833;53.238;6.576;2022-12-20T07:05:22;10.10;99.90
54930;DHT22;40833;53.238;6.576;2022-12-20T07:07:48;10.10;99.90
54930;DHT22;40833;53.238;6.576;2022-12-20T07:10:14;10.10;99.90
54930;DHT22;40833;53.238;6.576;2022-12-20T07:12:40;10.10;99.90
54930;DHT22;40833;53.238;6.576;2022-12-20T07:15:06;10.00;99.90
54930;DHT22;40833;53.238;6.576;2022-12-20T07:17:33;10.00;99.90
54930;DHT22;40833;53.238;6.576;2022-12-20T07:19:59;10.10;99.90
54930;DHT22;40833;53.238;6.576;2022-12-20T07:22:25;10.00;99.90
54930;DHT22;40833;53.238;6.576;2022-12-20T07:24:51;10.00;99.90
54930;DHT22;40833;53.238;6.576;2022-12-20T07:27:17;10.00;99.90
54930;DHT22;40833;53.238;6.576;2022-12-20T07:29:44;10.00;99.90
54930;DHT22;40833;53.238;6.576;2022-12-20T07:32:11;9.90;99.90
54930;DHT22;40833;53.238;6.576;2022-12-20T07:34:37;9.90;99.90
54930;DHT22;40833;53.238;6.576;2022-12-20T07:37:03;9.90;99.90
54930;DHT22;40833;53.238;6.576;2022-12-20T07:39:29;10.00;99.90
54930;DHT22;40833;53.238;6.576;2022-12-20T07:41:54;9.90;99.90
54930;DHT22;40833;53.238;6.576;2022-12-20T07:44:21;9.90;99.90
54930;DHT22;40833;53.238;6.576;2022-12-20T07:46:47;10.00;99.90
54930;DHT22;40833;53.238;6.576;2022-12-20T07:49:13;9.90;99.90
54930;DHT22;40833;53.238;6.576;2022-12-20T07:51:45;9.90;99.90
54930;DHT22;40833;53.238;6.576;2022-12-20T07:54:28;9.90;99.90
54930;DHT22;40833;53.238;6.576;2022-12-20T07:57:03;10.00;99.90
54930;DHT22;40833;53.238;6.576;2022-12-20T07:59:42;9.90;99.90
54930;DHT22;40833;53.238;6.576;2022-12-20T08:02:17;10.00;99.90
54930;DHT22;40833;53.238;6.576;2022-12-20T08:04:45;10.00;99.90
54930;DHT22;40833;53.238;6.576;2022-12-20T08:07:12;10.00;99.90
54930;DHT22;40833;53.238;6.576;2022-12-20T08:09:40;10.00;99.90
54930;DHT22;40833;53.238;6.576;2022-12-20T08:12:09;10.00;99.90
54930;DHT22;40833;53.238;6.576;2022-12-20T08:14:35;10.00;99.90
54930;DHT22;40833;53.238;6.576;2022-12-20T08:17:02;10.20;99.90
54930;DHT22;40833;53.238;6.576;2022-12-20T08:19:27;10.00;99.90
54930;DHT22;40833;53.238;6.576;2022-12-20T08:21:53;10.10;99.90
54930;DHT22;40833;53.238;6.576;2022-12-20T08:24:19;10.10;99.90
54930;DHT22;40833;53.238;6.576;2022-12-20T08:26:45;10.10;99.90
54930;DHT22;40833;53.238;6.576;2022-12-20T08:29:11;10.10;99.90
54930;DHT22;40833;53.238;6.576;2022-12-20T08:31:38;9.50;99.90
54930;DHT22;40833;53.238;6.576;2022-12-20T08:34:04;10.10;99.90
54930;DHT22;40833;53.238;6.576;2022-12-20T08:36:30;10.10;99.90
54930;DHT22;40833;53.238;6.576;2022-12-20T08:38:56;10.20;99.90
54930;DHT22;40833;53.238;6.576;2022-12-20T08:41:21;10.20;99.90
54930;DHT22;40833;53.238;6.576;2022-12-20T08:43:47;10.30;99.90
54930;DHT22;40833;53.238;6.576;2022-12-20T08:46:13;10.60;99.90
54930;DHT22;40833;53.238;6.576;2022-12-20T08:48:39;10.20;99.90
54930;DHT22;40833;53.238;6.576;2022-12-20T08:51:07;10.20;99.90
54930;DHT22;40833;53.238;6.576;2022-12-20T08:53:34;10.20;99.90
54930;DHT22;40833;53.238;6.576;2022-12-20T08:56:14;10.20;99.90
54930;DHT22;40833;53.238;6.576;2022-12-20T08:58:40;10.20;99.90
54930;DHT22;40833;53.238;6.576;2022-12-20T09:01:18;10.30;99.90
54930;DHT22;40833;53.238;6.576;2022-12-20T09:03:44;10.20;99.90
54930;DHT22;40833;53.238;6.576;2022-12-20T09:06:13;10.30;99.90
54930;DHT22;40833;53.238;6.576;2022-12-20T09:08:40;10.30;99.90
54930;DHT22;40833;53.238;6.576;2022-12-20T09:11:10;10.30;99.90
54930;DHT22;40833;53.238;6.576;2022-12-20T09:13:43;10.30;99.90
54930;DHT22;40833;53.238;6.576;2022-12-20T09:16:11;10.40;99.90
54930;DHT22;40833;53.238;6.576;2022-12-20T09:18:37;10.40;99.90
54930;DHT22;40833;53.238;6.576;2022-12-20T09:21:05;10.40;99.90
54930;DHT22;40833;53.238;6.576;2022-12-20T09:23:32;10.40;99.90
54930;DHT22;40833;53.238;6.576;2022-12-20T09:26:07;10.40;99.90
54930;DHT22;40833;53.238;6.576;2022-12-20T09:28:34;10.40;99.90
54930;DHT22;40833;53.238;6.576;2022-12-20T09:31:02;10.40;99.90
54930;DHT22;40833;53.238;6.576;2022-12-20T09:33:28;10.50;99.90
54930;DHT22;40833;53.238;6.576;2022-12-20T09:35:56;10.50;99.90
54930;DHT22;40833;53.238;6.576;2022-12-20T09:38:22;10.50;99.90
54930;DHT22;40833;53.238;6.576;2022-12-20T09:40:50;10.50;99.90
54930;DHT22;40833;53.238;6.576;2022-12-20T09:43:17;10.60;99.90
54930;DHT22;40833;53.238;6.576;2022-12-20T09:45:44;10.60;99.90
54930;DHT22;40833;53.238;6.576;2022-12-20T09:48:23;10.70;99.90
54930;DHT22;40833;53.238;6.576;2022-12-20T09:56:50;10.80;99.90
54930;DHT22;40833;53.238;6.576;2022-12-20T09:59:20;10.90;99.90
54930;DHT22;40833;53.238;6.576;2022-12-20T10:01:47;10.90;99.90
54930;DHT22;40833;53.238;6.576;2022-12-20T10:04:23;10.90;99.90
54930;DHT22;40833;53.238;6.576;2022-12-20T10:15:35;11.00;99.90
54930;DHT22;40833;53.238;6.576;2022-12-20T10:23:59;10.90;99.90
54930;DHT22;40833;53.238;6.576;2022-12-20T10:26:26;10.90;99.90
54930;DHT22;40833;53.238;6.576;2022-12-20T10:28:53;10.90;99.90
54930;DHT22;40833;53.238;6.576;2022-12-20T10:31:18;10.90;99.90
54930;DHT22;40833;53.238;6.576;2022-12-20T10:33:44;10.90;99.90
54930;DHT22;40833;53.238;6.576;2022-12-20T10:36:29;10.90;99.90
54930;DHT22;40833;53.238;6.576;2022-12-20T10:38:57;10.90;99.90
54930;DHT22;40833;53.238;6.576;2022-12-20T10:41:28;11.00;99.90
54930;DHT22;40833;53.238;6.576;2022-12-20T10:44:03;10.90;99.90
54930;DHT22;40833;53.238;6.576;2022-12-20T10:46:38;10.90;99.90
54930;DHT22;40833;53.238;6.576;2022-12-20T10:51:52;10.90;99.90
54930;DHT22;40833;53.238;6.576;2022-12-20T10:54:23;11.00;99.90
54930;DHT22;40833;53.238;6.576;2022-12-20T10:57:19;11.00;99.90
54930;DHT22;40833;53.238;6.576;2022-12-20T11:00:05;11.00;99.90
54930;DHT22;40833;53.238;6.576;2022-12-20T11:02:39;11.00;99.90
54930;DHT22;40833;53.238;6.576;2022-12-20T11:08:13;11.10;99.90
54930;DHT22;40833;53.238;6.576;2022-12-20T11:10:39;11.10;99.90
54930;DHT22;40833;53.238;6.576;2022-12-20T11:13:05;11.00;99.90
54930;DHT22;40833;53.238;6.576;2022-12-20T11:15:33;11.00;99.90
54930;DHT22;40833;53.238;6.576;2022-12-20T11:18:07;11.00;99.90
54930;DHT22;40833;53.238;6.576;2022-12-20T11:23:46;10.90;99.90
54930;DHT22;40833;53.238;6.576;2022-12-20T11:34:41;10.70;99.90
54930;DHT22;40833;53.238;6.576;2022-12-20T11:37:22;10.70;99.90
54930;DHT22;40833;53.238;6.576;2022-12-20T11:39:59;10.70;99.90
54930;DHT22;40833;53.238;6.576;2022-12-20T11:50:34;10.70;99.90
54930;DHT22;40833;53.238;6.576;2022-12-20T11:55:33;10.70;99.90
54930;DHT22;40833;53.238;6.576;2022-12-20T12:00:39;10.70;99.90
54930;DHT22;40833;53.238;6.576;2022-12-20T12:05:40;10.60;99.90
54930;DHT22;40833;53.238;6.576;2022-12-20T12:11:05;10.70;99.90
54930;DHT22;40833;53.238;6.576;2022-12-20T12:13:34;10.60;99.90
54930;DHT22;40833;53.238;6.576;2022-12-20T12:16:19;10.60;99.90
54930;DHT22;40833;53.238;6.576;2022-12-20T12:18:47;10.60;99.90
54930;DHT22;40833;53.238;6.576;2022-12-20T12:21:22;10.50;99.90
54930;DHT22;40833;53.238;6.576;2022-12-20T12:26:28;10.50;99.90
54930;DHT22;40833;53.238;6.576;2022-12-20T12:28:57;10.50;99.90
54930;DHT22;40833;53.238;6.576;2022-12-20T12:31:37;10.50;99.90
54930;DHT22;40833;53.238;6.576;2022-12-20T12:37:20;10.50;99.90
54930;DHT22;40833;53.238;6.576;2022-12-20T12:39:57;10.50;99.90
54930;DHT22;40833;53.238;6.576;2022-12-20T12:45:20;10.50;99.90
54930;DHT22;40833;53.238;6.576;2022-12-20T12:47:49;10.40;99.90
54930;DHT22;40833;53.238;6.576;2022-12-20T12:50:37;10.40;99.90
54930;DHT22;40833;53.238;6.576;2022-12-20T12:55:42;10.40;99.90
54930;DHT22;40833;53.238;6.576;2022-12-20T13:01:00;10.40;99.90
54930;DHT22;40833;53.238;6.576;2022-12-20T13:04:10;10.40;99.90
54930;DHT22;40833;53.238;6.576;2022-12-20T13:11:47;10.40;99.90
54930;DHT22;40833;53.238;6.576;2022-12-20T13:19:36;10.30;99.90
54930;DHT22;40833;53.238;6.576;2022-12-20T13:27:39;10.40;99.90
54930;DHT22;40833;53.238;6.576;2022-12-20T13:40:56;10.40;99.90
54930;DHT22;40833;53.238;6.576;2022-12-20T13:45:54;10.40;99.90
54930;DHT22;40833;53.238;6.576;2022-12-20T13:48:28;10.40;99.90
54930;DHT22;40833;53.238;6.576;2022-12-20T13:50:56;10.40;99.90
54930;DHT22;40833;53.238;6.576;2022-12-20T13:53:26;10.40;99.90
54930;DHT22;40833;53.238;6.576;2022-12-20T13:55:53;10.40;99.90
54930;DHT22;40833;53.238;6.576;2022-12-20T14:00:47;10.50;99.90
54930;DHT22;40833;53.238;6.576;2022-12-20T14:03:21;10.40;99.90
54930;DHT22;40833;53.238;6.576;2022-12-20T14:05:48;10.40;99.90
54930;DHT22;40833;53.238;6.576;2022-12-20T14:08:19;10.40;99.90
54930;DHT22;40833;53.238;6.576;2022-12-20T14:10:45;10.40;99.90
54930;DHT22;40833;53.238;6.576;2022-12-20T14:13:23;10.40;99.90
54930;DHT22;40833;53.238;6.576;2022-12-20T14:15:50;10.50;99.90
54930;DHT22;40833;53.238;6.576;2022-12-20T14:18:19;10.50;99.90
54930;DHT22;40833;53.238;6.576;2022-12-20T14:20:47;10.40;99.90
54930;DHT22;40833;53.238;6.576;2022-12-20T14:23:19;10.40;99.90
54930;DHT22;40833;53.238;6.576;2022-12-20T14:25:50;10.40;99.90
54930;DHT22;40833;53.238;6.576;2022-12-20T14:28:19;10.40;99.90
54930;DHT22;40833;53.238;6.576;2022-12-20T14:30:46;10.40;99.90
54930;DHT22;40833;53.238;6.576;2022-12-20T14:33:24;10.40;99.90
54930;DHT22;40833;53.238;6.576;2022-12-20T14:35:50;10.50;99.90
54930;DHT22;40833;53.238;6.576;2022-12-20T14:38:24;10.40;99.90
54930;DHT22;40833;53.238;6.576;2022-12-20T14:40:53;10.50;99.90
54930;DHT22;40833;53.238;6.576;2022-12-20T14:43:31;10.40;99.90
54930;DHT22;40833;53.238;6.576;2022-12-20T14:46:16;10.40;99.90
54930;DHT22;40833;53.238;6.576;2022-12-20T14:48:44;10.40;99.90
54930;DHT22;40833;53.238;6.576;2022-12-20T14:51:09;10.40;99.90
54930;DHT22;40833;53.238;6.576;2022-12-20T14:53:38;10.40;99.90
54930;DHT22;40833;53.238;6.576;2022-12-20T14:56:04;10.40;99.90
54930;DHT22;40833;53.238;6.576;2022-12-20T14:58:32;10.40;99.90
54930;DHT22;40833;53.238;6.576;2022-12-20T15:01:00;10.40;99.90
54930;DHT22;40833;53.238;6.576;2022-12-20T15:03:26;10.40;99.90
54930;DHT22;40833;53.238;6.576;2022-12-20T15:05:52;10.40;99.90
54930;DHT22;40833;53.238;6.576;2022-12-20T15:08:25;10.40;99.90
54930;DHT22;40833;53.238;6.576;2022-12-20T15:11:16;10.40;99.90
54930;DHT22;40833;53.238;6.576;2022-12-20T15:13:46;10.40;99.90
54930;DHT22;40833;53.238;6.576;2022-12-20T15:18:48;10.40;99.90
54930;DHT22;40833;53.238;6.576;2022-12-20T15:23:54;10.40;99.90
54930;DHT22;40833;53.238;6.576;2022-12-20T15:26:23;10.30;99.90
54930;DHT22;40833;53.238;6.576;2022-12-20T15:28:50;10.30;99.90
54930;DHT22;40833;53.238;6.576;2022-12-20T15:31:17;10.30;99.90
54930;DHT22;40833;53.238;6.576;2022-12-20T15:33:45;10.30;99.90
54930;DHT22;40833;53.238;6.576;2022-12-20T15:38:40;10.30;99.90
54930;DHT22;40833;53.238;6.576;2022-12-20T15:41:09;10.30;99.90
54930;DHT22;40833;53.238;6.576;2022-12-20T15:43:37;10.30;99.90
54930;DHT22;40833;53.238;6.576;2022-12-20T15:46:04;10.30;99.90
54930;DHT22;40833;53.238;6.576;2022-12-20T15:48:29;10.30;99.90
54930;DHT22;40833;53.238;6.576;2022-12-20T15:50:56;10.30;99.90
54930;DHT22;40833;53.238;6.576;2022-12-20T15:53:26;10.30;99.90
54930;DHT22;40833;53.238;6.576;2022-12-20T15:55:54;10.30;99.90
54930;DHT22;40833;53.238;6.576;2022-12-20T15:58:22;10.30;99.90
54930;DHT22;40833;53.238;6.576;2022-12-20T16:00:48;10.30;99.90
54930;DHT22;40833;53.238;6.576;2022-12-20T16:03:19;10.30;99.90
54930;DHT22;40833;53.238;6.576;2022-12-20T16:05:49;10.30;99.90
54930;DHT22;40833;53.238;6.576;2022-12-20T16:08:16;10.30;99.90
54930;DHT22;40833;53.238;6.576;2022-12-20T16:10:44;10.30;99.90
54930;DHT22;40833;53.238;6.576;2022-12-20T16:13:28;10.30;99.90
54930;DHT22;40833;53.238;6.576;2022-12-20T16:15:54;10.30;99.90
54930;DHT22;40833;53.238;6.576;2022-12-20T16:18:19;10.30;99.90
54930;DHT22;40833;53.238;6.576;2022-12-20T16:20:45;10.20;99.90
54930;DHT22;40833;53.238;6.576;2022-12-20T16:23:19;10.20;99.90
54930;DHT22;40833;53.238;6.576;2022-12-20T16:25:50;10.30;99.90
54930;DHT22;40833;53.238;6.576;2022-12-20T16:28:16;10.20;99.90
54930;DHT22;40833;53.238;6.576;2022-12-20T16:30:42;10.20;99.90
54930;DHT22;40833;53.238;6.576;2022-12-20T16:33:26;10.20;99.90
54930;DHT22;40833;53.238;6.576;2022-12-20T16:35:51;10.20;99.90
54930;DHT22;40833;53.238;6.576;2022-12-20T16:38:17;10.30;99.90
54930;DHT22;40833;53.238;6.576;2022-12-20T16:40:42;10.20;99.90
54930;DHT22;40833;53.238;6.576;2022-12-20T16:43:12;10.20;99.90
54930;DHT22;40833;53.238;6.576;2022-12-20T16:45:39;10.10;99.90
54930;DHT22;40833;53.238;6.576;2022-12-20T16:48:05;10.20;99.90
54930;DHT22;40833;53.238;6.576;2022-12-20T16:50:30;10.10;99.90
54930;DHT22;40833;53.238;6.576;2022-12-20T16:52:56;10.10;99.90
54930;DHT22;40833;53.238;6.576;2022-12-20T16:55:24;10.10;99.90
54930;DHT22;40833;53.238;6.576;2022-12-20T16:57:51;10.10;99.90
54930;DHT22;40833;53.238;6.576;2022-12-20T17:00:19;10.10;99.90
54930;DHT22;40833;53.238;6.576;2022-12-20T17:02:45;10.10;99.90
54930;DHT22;40833;53.238;6.576;2022-12-20T17:05:26;10.10;99.90
54930;DHT22;40833;53.238;6.576;2022-12-20T17:07:52;10.10;99.90
54930;DHT22;40833;53.238;6.576;2022-12-20T17:10:18;10.10;99.90
54930;DHT22;40833;53.238;6.576;2022-12-20T17:12:45;10.10;99.90
54930;DHT22;40833;53.238;6.576;2022-12-20T17:15:28;10.10;99.90
54930;DHT22;40833;53.238;6.576;2022-12-20T17:17:54;10.10;99.90
54930;DHT22;40833;53.238;6.576;2022-12-20T17:20:21;10.00;99.90
54930;DHT22;40833;53.238;6.576;2022-12-20T17:22:50;10.10;99.90
54930;DHT22;40833;53.238;6.576;2022-12-20T17:27:50;10.00;99.90
54930;DHT22;40833;53.238;6.576;2022-12-20T17:30:16;10.00;99.90
54930;DHT22;40833;53.238;6.576;2022-12-20T17:32:42;10.10;99.90
54930;DHT22;40833;53.238;6.576;2022-12-20T17:35:27;10.00;99.90
54930;DHT22;40833;53.238;6.576;2022-12-20T17:37:53;10.00;99.90
54930;DHT22;40833;53.238;6.576;2022-12-20T17:40:22;10.30;99.90
54930;DHT22;40833;53.238;6.576;2022-12-20T17:42:48;10.00;99.90
54930;DHT22;40833;53.238;6.576;2022-12-20T17:45:27;10.00;99.90
54930;DHT22;40833;53.238;6.576;2022-12-20T17:47:53;10.00;99.90
54930;DHT22;40833;53.238;6.576;2022-12-20T17:50:20;9.90;99.90
54930;DHT22;40833;53.238;6.576;2022-12-20T17:52:47;9.90;99.90
54930;DHT22;40833;53.238;6.576;2022-12-20T17:55:18;9.90;99.90